sensor_id;sensor_type;location;lat;lon;timestamp;P1;durP1;ratioP1;P2;durP2;ratioP2
78197;SDS011;67472;51.554;7.812;2023-04-24T00:01:14;1.02;;;0.63;;
78197;SDS011;67472;51.554;7.812;2023-04-24T00:03:59;2.17;;;0.90;;
78197;SDS011;67472;51.554;7.812;2023-04-24T00:06:52;1.20;;;0.82;;
78197;SDS011;67472;51.554;7.812;2023-04-24T00:09:58;0.57;;;0.57;;
78197;SDS011;67472;51.554;7.812;2023-04-24T00:13:24;6.30;;;0.95;;
78197;SDS011;67472;51.554;7.812;2023-04-24T00:16:09;0.80;;;0.75;;
78197;SDS011;67472;51.554;7.812;2023-04-24T00:18:54;1.70;;;0.52;;
78197;SDS011;67472;51.554;7.812;2023-04-24T00:21:39;0.73;;;0.73;;
78197;SDS011;67472;51.554;7.812;2023-04-24T00:24:26;0.63;;;0.63;;
78197;SDS011;67472;51.554;7.812;2023-04-24T00:27:11;0.45;;;0.45;;
78197;SDS011;67472;51.554;7.812;2023-04-24T00:29:56;0.60;;;0.60;;
78197;SDS011;67472;51.554;7.812;2023-04-24T00:32:41;1.27;;;0.70;;
78197;SDS011;67472;51.554;7.812;2023-04-24T00:35:26;2.15;;;0.73;;
78197;SDS011;67472;51.554;7.812;2023-04-24T00:38:11;0.60;;;0.60;;
78197;SDS011;67472;51.554;7.812;2023-04-24T00:40:56;1.08;;;0.70;;
78197;SDS011;67472;51.554;7.812;2023-04-24T00:43:41;0.70;;;0.70;;
78197;SDS011;67472;51.554;7.812;2023-04-24T00:46:35;0.88;;;0.88;;
78197;SDS011;67472;51.554;7.812;2023-04-24T00:49:51;0.80;;;0.80;;
78197;SDS011;67472;51.554;7.812;2023-04-24T00:52:37;1.08;;;0.80;;
78197;SDS011;67472;51.554;7.812;2023-04-24T00:55:22;0.88;;;0.88;;
78197;SDS011;67472;51.554;7.812;2023-04-24T00:58:07;2.45;;;1.00;;
78197;SDS011;67472;51.554;7.812;2023-04-24T01:00:53;0.90;;;0.90;;
78197;SDS011;67472;51.554;7.812;2023-04-24T01:03:40;1.48;;;0.98;;
78197;SDS011;67472;51.554;7.812;2023-04-24T01:06:27;1.15;;;1.00;;
78197;SDS011;67472;51.554;7.812;2023-04-24T01:09:13;1.08;;;0.90;;
78197;SDS011;67472;51.554;7.812;2023-04-24T01:11:59;1.40;;;0.90;;
78197;SDS011;67472;51.554;7.812;2023-04-24T01:14:54;1.80;;;0.90;;
78197;SDS011;67472;51.554;7.812;2023-04-24T01:18:32;0.95;;;0.95;;
78197;SDS011;67472;51.554;7.812;2023-04-24T01:21:37;0.95;;;0.95;;
78197;SDS011;67472;51.554;7.812;2023-04-24T01:24:23;0.60;;;0.60;;
78197;SDS011;67472;51.554;7.812;2023-04-24T01:27:09;3.25;;;1.30;;
78197;SDS011;67472;51.554;7.812;2023-04-24T01:29:54;2.35;;;0.98;;
78197;SDS011;67472;51.554;7.812;2023-04-24T01:32:40;1.40;;;1.05;;
78197;SDS011;67472;51.554;7.812;2023-04-24T01:35:28;0.80;;;0.80;;
78197;SDS011;67472;51.554;7.812;2023-04-24T01:38:14;1.48;;;0.95;;
78197;SDS011;67472;51.554;7.812;2023-04-24T01:40:59;2.72;;;0.90;;
78197;SDS011;67472;51.554;7.812;2023-04-24T01:43:44;0.77;;;0.77;;
78197;SDS011;67472;51.554;7.812;2023-04-24T01:46:29;0.80;;;0.80;;
78197;SDS011;67472;51.554;7.812;2023-04-24T01:49:16;0.80;;;0.80;;
78197;SDS011;67472;51.554;7.812;2023-04-24T01:52:00;1.75;;;1.00;;
78197;SDS011;67472;51.554;7.812;2023-04-24T01:54:48;1.73;;;1.02;;
78197;SDS011;67472;51.554;7.812;2023-04-24T01:57:35;1.17;;;0.90;;
78197;SDS011;67472;51.554;7.812;2023-04-24T02:00:20;0.93;;;0.90;;
78197;SDS011;67472;51.554;7.812;2023-04-24T02:03:05;0.75;;;0.75;;
78197;SDS011;67472;51.554;7.812;2023-04-24T02:05:50;1.23;;;1.13;;
78197;SDS011;67472;51.554;7.812;2023-04-24T02:08:35;1.23;;;1.05;;
78197;SDS011;67472;51.554;7.812;2023-04-24T02:11:20;0.90;;;0.80;;
78197;SDS011;67472;51.554;7.812;2023-04-24T02:14:05;2.10;;;1.20;;
78197;SDS011;67472;51.554;7.812;2023-04-24T02:16:50;1.17;;;1.10;;
78197;SDS011;67472;51.554;7.812;2023-04-24T02:19:35;2.58;;;1.00;;
78197;SDS011;67472;51.554;7.812;2023-04-24T02:22:20;1.38;;;1.20;;
78197;SDS011;67472;51.554;7.812;2023-04-24T02:25:05;4.43;;;0.95;;
78197;SDS011;67472;51.554;7.812;2023-04-24T02:27:51;1.25;;;0.90;;
78197;SDS011;67472;51.554;7.812;2023-04-24T02:30:36;3.28;;;1.17;;
78197;SDS011;67472;51.554;7.812;2023-04-24T02:33:21;0.68;;;0.68;;
78197;SDS011;67472;51.554;7.812;2023-04-24T02:36:06;1.73;;;0.80;;
78197;SDS011;67472;51.554;7.812;2023-04-24T02:38:51;0.80;;;0.80;;
78197;SDS011;67472;51.554;7.812;2023-04-24T02:41:36;1.00;;;0.90;;
78197;SDS011;67472;51.554;7.812;2023-04-24T02:44:21;1.88;;;1.17;;
78197;SDS011;67472;51.554;7.812;2023-04-24T02:47:07;1.17;;;0.98;;
78197;SDS011;67472;51.554;7.812;2023-04-24T02:49:53;1.25;;;1.10;;
78197;SDS011;67472;51.554;7.812;2023-04-24T02:52:38;1.30;;;1.20;;
78197;SDS011;67472;51.554;7.812;2023-04-24T02:55:24;1.92;;;1.63;;
78197;SDS011;67472;51.554;7.812;2023-04-24T02:58:09;2.40;;;1.70;;
78197;SDS011;67472;51.554;7.812;2023-04-24T03:00:55;4.20;;;1.95;;
78197;SDS011;67472;51.554;7.812;2023-04-24T03:03:40;1.77;;;1.67;;
78197;SDS011;67472;51.554;7.812;2023-04-24T03:06:25;4.07;;;2.20;;
78197;SDS011;67472;51.554;7.812;2023-04-24T03:09:11;2.67;;;2.20;;
78197;SDS011;67472;51.554;7.812;2023-04-24T03:11:56;2.78;;;2.50;;
78197;SDS011;67472;51.554;7.812;2023-04-24T03:14:43;2.83;;;2.50;;
78197;SDS011;67472;51.554;7.812;2023-04-24T03:17:28;3.50;;;2.88;;
78197;SDS011;67472;51.554;7.812;2023-04-24T03:20:13;3.90;;;2.78;;
78197;SDS011;67472;51.554;7.812;2023-04-24T03:22:59;3.42;;;3.05;;
78197;SDS011;67472;51.554;7.812;2023-04-24T03:25:44;2.80;;;2.58;;
78197;SDS011;67472;51.554;7.812;2023-04-24T03:28:30;4.25;;;3.17;;
78197;SDS011;67472;51.554;7.812;2023-04-24T03:31:19;3.20;;;2.88;;
78197;SDS011;67472;51.554;7.812;2023-04-24T03:34:06;5.50;;;3.45;;
78197;SDS011;67472;51.554;7.812;2023-04-24T03:36:51;6.05;;;5.05;;
78197;SDS011;67472;51.554;7.812;2023-04-24T03:39:37;7.75;;;6.15;;
78197;SDS011;67472;51.554;7.812;2023-04-24T03:42:22;11.43;;;7.97;;
78197;SDS011;67472;51.554;7.812;2023-04-24T03:45:11;10.63;;;8.35;;
78197;SDS011;67472;51.554;7.812;2023-04-24T03:47:58;12.82;;;8.75;;
78197;SDS011;67472;51.554;7.812;2023-04-24T03:50:44;13.25;;;8.98;;
78197;SDS011;67472;51.554;7.812;2023-04-24T03:53:30;14.85;;;9.95;;
78197;SDS011;67472;51.554;7.812;2023-04-24T03:56:15;15.32;;;10.27;;
78197;SDS011;67472;51.554;7.812;2023-04-24T03:59:00;13.60;;;10.13;;
78197;SDS011;67472;51.554;7.812;2023-04-24T04:01:45;15.50;;;10.13;;
78197;SDS011;67472;51.554;7.812;2023-04-24T04:04:35;14.13;;;10.27;;
78197;SDS011;67472;51.554;7.812;2023-04-24T04:07:20;15.48;;;10.38;;
78197;SDS011;67472;51.554;7.812;2023-04-24T04:10:05;12.68;;;10.52;;
78197;SDS011;67472;51.554;7.812;2023-04-24T04:12:52;13.38;;;10.73;;
78197;SDS011;67472;51.554;7.812;2023-04-24T04:15:37;14.38;;;10.70;;
78197;SDS011;67472;51.554;7.812;2023-04-24T04:18:22;12.20;;;9.40;;
78197;SDS011;67472;51.554;7.812;2023-04-24T04:21:07;13.43;;;9.57;;
78197;SDS011;67472;51.554;7.812;2023-04-24T04:23:53;14.73;;;10.82;;
78197;SDS011;67472;51.554;7.812;2023-04-24T04:26:44;15.80;;;11.70;;
78197;SDS011;67472;51.554;7.812;2023-04-24T04:29:36;13.02;;;10.80;;
78197;SDS011;67472;51.554;7.812;2023-04-24T04:32:24;14.75;;;11.38;;
78197;SDS011;67472;51.554;7.812;2023-04-24T04:35:09;16.75;;;11.20;;
78197;SDS011;67472;51.554;7.812;2023-04-24T04:37:55;15.57;;;11.27;;
78197;SDS011;67472;51.554;7.812;2023-04-24T04:41:06;14.40;;;10.50;;
78197;SDS011;67472;51.554;7.812;2023-04-24T04:43:51;17.30;;;11.15;;
78197;SDS011;67472;51.554;7.812;2023-04-24T04:46:37;14.13;;;10.45;;
78197;SDS011;67472;51.554;7.812;2023-04-24T04:49:30;13.82;;;9.55;;
78197;SDS011;67472;51.554;7.812;2023-04-24T04:52:15;15.55;;;10.27;;
78197;SDS011;67472;51.554;7.812;2023-04-24T04:55:03;17.83;;;10.38;;
78197;SDS011;67472;51.554;7.812;2023-04-24T04:58:08;12.57;;;9.68;;
78197;SDS011;67472;51.554;7.812;2023-04-24T05:00:53;14.00;;;10.65;;
78197;SDS011;67472;51.554;7.812;2023-04-24T05:03:45;15.40;;;10.90;;
78197;SDS011;67472;51.554;7.812;2023-04-24T05:06:33;12.40;;;9.35;;
78197;SDS011;67472;51.554;7.812;2023-04-24T05:09:18;13.38;;;10.00;;
78197;SDS011;67472;51.554;7.812;2023-04-24T05:12:10;14.10;;;9.27;;
78197;SDS011;67472;51.554;7.812;2023-04-24T05:15:03;14.07;;;10.60;;
78197;SDS011;67472;51.554;7.812;2023-04-24T05:17:48;12.68;;;9.90;;
78197;SDS011;67472;51.554;7.812;2023-04-24T05:20:34;14.93;;;10.07;;
78197;SDS011;67472;51.554;7.812;2023-04-24T05:23:20;11.35;;;9.35;;
78197;SDS011;67472;51.554;7.812;2023-04-24T05:26:09;12.75;;;10.07;;
78197;SDS011;67472;51.554;7.812;2023-04-24T05:28:53;16.27;;;10.43;;
78197;SDS011;67472;51.554;7.812;2023-04-24T05:31:38;16.00;;;11.48;;
78197;SDS011;67472;51.554;7.812;2023-04-24T05:34:23;18.20;;;11.25;;
78197;SDS011;67472;51.554;7.812;2023-04-24T05:37:12;16.27;;;12.70;;
78197;SDS011;67472;51.554;7.812;2023-04-24T05:39:59;18.15;;;12.55;;
78197;SDS011;67472;51.554;7.812;2023-04-24T05:42:44;16.50;;;11.95;;
78197;SDS011;67472;51.554;7.812;2023-04-24T05:45:29;14.00;;;11.13;;
78197;SDS011;67472;51.554;7.812;2023-04-24T05:48:14;16.02;;;11.93;;
78197;SDS011;67472;51.554;7.812;2023-04-24T05:51:00;12.93;;;9.85;;
78197;SDS011;67472;51.554;7.812;2023-04-24T05:53:45;11.20;;;9.18;;
78197;SDS011;67472;51.554;7.812;2023-04-24T05:56:30;10.05;;;8.40;;
78197;SDS011;67472;51.554;7.812;2023-04-24T05:59:17;14.45;;;8.60;;
78197;SDS011;67472;51.554;7.812;2023-04-24T06:02:02;12.02;;;8.05;;
78197;SDS011;67472;51.554;7.812;2023-04-24T06:04:47;10.40;;;8.55;;
78197;SDS011;67472;51.554;7.812;2023-04-24T06:07:32;11.73;;;8.07;;
78197;SDS011;67472;51.554;7.812;2023-04-24T06:10:20;9.27;;;8.27;;
78197;SDS011;67472;51.554;7.812;2023-04-24T06:13:05;9.60;;;7.50;;
78197;SDS011;67472;51.554;7.812;2023-04-24T06:15:53;8.48;;;7.63;;
78197;SDS011;67472;51.554;7.812;2023-04-24T06:18:46;8.82;;;7.25;;
78197;SDS011;67472;51.554;7.812;2023-04-24T06:21:32;8.23;;;7.28;;
78197;SDS011;67472;51.554;7.812;2023-04-24T06:24:17;7.10;;;6.07;;
78197;SDS011;67472;51.554;7.812;2023-04-24T06:27:02;7.18;;;5.90;;
78197;SDS011;67472;51.554;7.812;2023-04-24T06:29:47;6.45;;;5.40;;
78197;SDS011;67472;51.554;7.812;2023-04-24T06:32:39;8.32;;;6.18;;
78197;SDS011;67472;51.554;7.812;2023-04-24T06:35:24;7.78;;;6.60;;
78197;SDS011;67472;51.554;7.812;2023-04-24T06:38:10;9.23;;;6.72;;
78197;SDS011;67472;51.554;7.812;2023-04-24T06:40:55;7.47;;;6.28;;
78197;SDS011;67472;51.554;7.812;2023-04-24T06:43:40;8.48;;;6.35;;
78197;SDS011;67472;51.554;7.812;2023-04-24T06:46:26;9.07;;;6.97;;
78197;SDS011;67472;51.554;7.812;2023-04-24T06:49:12;9.40;;;5.95;;
78197;SDS011;67472;51.554;7.812;2023-04-24T06:52:00;8.93;;;6.45;;
78197;SDS011;67472;51.554;7.812;2023-04-24T06:54:45;7.00;;;6.30;;
78197;SDS011;67472;51.554;7.812;2023-04-24T06:57:30;6.10;;;5.28;;
78197;SDS011;67472;51.554;7.812;2023-04-24T07:00:15;7.85;;;5.40;;
78197;SDS011;67472;51.554;7.812;2023-04-24T07:03:01;7.82;;;4.70;;
78197;SDS011;67472;51.554;7.812;2023-04-24T07:05:46;6.57;;;5.25;;
78197;SDS011;67472;51.554;7.812;2023-04-24T07:08:33;6.20;;;4.47;;
78197;SDS011;67472;51.554;7.812;2023-04-24T07:11:18;5.93;;;4.47;;
78197;SDS011;67472;51.554;7.812;2023-04-24T07:14:04;7.55;;;3.80;;
78197;SDS011;67472;51.554;7.812;2023-04-24T07:16:50;5.57;;;4.72;;
78197;SDS011;67472;51.554;7.812;2023-04-24T07:19:35;4.43;;;4.03;;
78197;SDS011;67472;51.554;7.812;2023-04-24T07:22:20;4.93;;;4.03;;
78197;SDS011;67472;51.554;7.812;2023-04-24T07:25:05;4.20;;;3.10;;
78197;SDS011;67472;51.554;7.812;2023-04-24T07:27:51;4.03;;;3.45;;
78197;SDS011;67472;51.554;7.812;2023-04-24T07:30:35;5.13;;;3.78;;
78197;SDS011;67472;51.554;7.812;2023-04-24T07:33:20;3.90;;;3.53;;
78197;SDS011;67472;51.554;7.812;2023-04-24T07:36:06;4.30;;;3.90;;
78197;SDS011;67472;51.554;7.812;2023-04-24T07:38:50;4.57;;;3.47;;
78197;SDS011;67472;51.554;7.812;2023-04-24T07:41:36;6.32;;;4.15;;
78197;SDS011;67472;51.554;7.812;2023-04-24T07:44:21;5.43;;;4.75;;
78197;SDS011;67472;51.554;7.812;2023-04-24T07:47:06;7.18;;;4.18;;
78197;SDS011;67472;51.554;7.812;2023-04-24T07:49:51;5.00;;;4.22;;
78197;SDS011;67472;51.554;7.812;2023-04-24T07:52:36;7.00;;;4.53;;
78197;SDS011;67472;51.554;7.812;2023-04-24T07:55:22;4.07;;;3.58;;
78197;SDS011;67472;51.554;7.812;2023-04-24T07:58:07;3.60;;;3.30;;
78197;SDS011;67472;51.554;7.812;2023-04-24T08:00:52;4.30;;;3.40;;
78197;SDS011;67472;51.554;7.812;2023-04-24T08:03:37;2.55;;;2.30;;
78197;SDS011;67472;51.554;7.812;2023-04-24T08:06:22;3.10;;;2.80;;
78197;SDS011;67472;51.554;7.812;2023-04-24T08:09:07;5.28;;;2.95;;
78197;SDS011;67472;51.554;7.812;2023-04-24T08:11:52;5.90;;;2.70;;
78197;SDS011;67472;51.554;7.812;2023-04-24T08:14:37;3.42;;;2.63;;
78197;SDS011;67472;51.554;7.812;2023-04-24T08:17:23;3.35;;;2.50;;
78197;SDS011;67472;51.554;7.812;2023-04-24T08:20:10;4.45;;;2.33;;
78197;SDS011;67472;51.554;7.812;2023-04-24T08:22:58;3.85;;;1.90;;
78197;SDS011;67472;51.554;7.812;2023-04-24T08:25:42;2.20;;;2.00;;
78197;SDS011;67472;51.554;7.812;2023-04-24T08:28:28;3.08;;;2.28;;
78197;SDS011;67472;51.554;7.812;2023-04-24T08:31:12;2.50;;;2.30;;
78197;SDS011;67472;51.554;7.812;2023-04-24T08:33:58;3.53;;;2.88;;
78197;SDS011;67472;51.554;7.812;2023-04-24T08:36:44;3.33;;;1.80;;
78197;SDS011;67472;51.554;7.812;2023-04-24T08:39:29;1.38;;;1.30;;
78197;SDS011;67472;51.554;7.812;2023-04-24T08:42:14;0.98;;;0.98;;
78197;SDS011;67472;51.554;7.812;2023-04-24T08:45:01;2.60;;;0.90;;
78197;SDS011;67472;51.554;7.812;2023-04-24T08:47:46;1.58;;;1.08;;
78197;SDS011;67472;51.554;7.812;2023-04-24T08:50:33;2.53;;;1.00;;
78197;SDS011;67472;51.554;7.812;2023-04-24T08:53:19;0.90;;;0.90;;
78197;SDS011;67472;51.554;7.812;2023-04-24T08:56:04;0.68;;;0.68;;
78197;SDS011;67472;51.554;7.812;2023-04-24T08:58:50;0.68;;;0.68;;
78197;SDS011;67472;51.554;7.812;2023-04-24T09:01:36;1.33;;;0.50;;
78197;SDS011;67472;51.554;7.812;2023-04-24T09:04:24;0.70;;;0.63;;
78197;SDS011;67472;51.554;7.812;2023-04-24T09:07:10;0.60;;;0.60;;
78197;SDS011;67472;51.554;7.812;2023-04-24T09:09:56;2.17;;;0.70;;
78197;SDS011;67472;51.554;7.812;2023-04-24T09:12:42;1.48;;;1.05;;
78197;SDS011;67472;51.554;7.812;2023-04-24T09:15:28;2.90;;;0.98;;
78197;SDS011;67472;51.554;7.812;2023-04-24T09:18:13;0.43;;;0.43;;
78197;SDS011;67472;51.554;7.812;2023-04-24T09:20:59;2.10;;;0.50;;
78197;SDS011;67472;51.554;7.812;2023-04-24T09:24:01;0.43;;;0.43;;
78197;SDS011;67472;51.554;7.812;2023-04-24T09:26:48;0.50;;;0.50;;
78197;SDS011;67472;51.554;7.812;2023-04-24T09:29:55;0.50;;;0.50;;
78197;SDS011;67472;51.554;7.812;2023-04-24T09:32:41;0.70;;;0.70;;
78197;SDS011;67472;51.554;7.812;2023-04-24T09:35:26;1.17;;;0.50;;
78197;SDS011;67472;51.554;7.812;2023-04-24T09:38:11;0.70;;;0.70;;
78197;SDS011;67472;51.554;7.812;2023-04-24T09:40:58;0.80;;;0.80;;
78197;SDS011;67472;51.554;7.812;2023-04-24T09:43:44;0.55;;;0.55;;
78197;SDS011;67472;51.554;7.812;2023-04-24T09:46:30;1.67;;;0.55;;
78197;SDS011;67472;51.554;7.812;2023-04-24T09:49:23;0.50;;;0.50;;
78197;SDS011;67472;51.554;7.812;2023-04-24T09:52:09;0.82;;;0.60;;
78197;SDS011;67472;51.554;7.812;2023-04-24T09:54:55;0.68;;;0.68;;
78197;SDS011;67472;51.554;7.812;2023-04-24T09:57:48;0.82;;;0.82;;
78197;SDS011;67472;51.554;7.812;2023-04-24T10:00:44;1.52;;;0.98;;
78197;SDS011;67472;51.554;7.812;2023-04-24T10:03:31;1.20;;;1.10;;
78197;SDS011;67472;51.554;7.812;2023-04-24T10:06:17;2.85;;;1.30;;
78197;SDS011;67472;51.554;7.812;2023-04-24T10:09:03;1.52;;;1.42;;
78197;SDS011;67472;51.554;7.812;2023-04-24T10:11:49;2.35;;;2.00;;
78197;SDS011;67472;51.554;7.812;2023-04-24T10:14:36;2.63;;;1.98;;
78197;SDS011;67472;51.554;7.812;2023-04-24T10:17:21;3.83;;;2.30;;
78197;SDS011;67472;51.554;7.812;2023-04-24T10:20:08;1.75;;;1.65;;
78197;SDS011;67472;51.554;7.812;2023-04-24T10:22:53;1.92;;;1.83;;
78197;SDS011;67472;51.554;7.812;2023-04-24T10:25:38;2.38;;;2.20;;
78197;SDS011;67472;51.554;7.812;2023-04-24T10:28:23;2.08;;;1.98;;
78197;SDS011;67472;51.554;7.812;2023-04-24T10:31:09;5.43;;;2.50;;
78197;SDS011;67472;51.554;7.812;2023-04-24T10:33:55;2.03;;;1.75;;
78197;SDS011;67472;51.554;7.812;2023-04-24T10:36:53;2.90;;;2.33;;
78197;SDS011;67472;51.554;7.812;2023-04-24T10:39:40;2.63;;;2.17;;
78197;SDS011;67472;51.554;7.812;2023-04-24T10:42:27;1.75;;;1.65;;
78197;SDS011;67472;51.554;7.812;2023-04-24T10:45:18;4.40;;;1.52;;
78197;SDS011;67472;51.554;7.812;2023-04-24T10:48:08;3.67;;;1.70;;
78197;SDS011;67472;51.554;7.812;2023-04-24T10:50:57;2.72;;;1.90;;
78197;SDS011;67472;51.554;7.812;2023-04-24T10:53:43;1.90;;;1.80;;
78197;SDS011;67472;51.554;7.812;2023-04-24T10:56:28;2.03;;;1.92;;
78197;SDS011;67472;51.554;7.812;2023-04-24T10:59:13;2.72;;;1.92;;
78197;SDS011;67472;51.554;7.812;2023-04-24T11:02:09;2.45;;;2.05;;
78197;SDS011;67472;51.554;7.812;2023-04-24T11:04:54;2.50;;;2.30;;
78197;SDS011;67472;51.554;7.812;2023-04-24T11:11:18;5.57;;;2.75;;
78197;SDS011;67472;51.554;7.812;2023-04-24T11:14:06;2.58;;;2.38;;
78197;SDS011;67472;51.554;7.812;2023-04-24T11:16:52;3.38;;;2.67;;
78197;SDS011;67472;51.554;7.812;2023-04-24T11:19:41;4.55;;;2.67;;
78197;SDS011;67472;51.554;7.812;2023-04-24T11:22:26;5.53;;;2.88;;
78197;SDS011;67472;51.554;7.812;2023-04-24T11:25:14;3.35;;;3.05;;
78197;SDS011;67472;51.554;7.812;2023-04-24T11:28:04;5.32;;;3.45;;
78197;SDS011;67472;51.554;7.812;2023-04-24T11:30:50;4.28;;;3.60;;
78197;SDS011;67472;51.554;7.812;2023-04-24T11:33:36;4.63;;;3.85;;
78197;SDS011;67472;51.554;7.812;2023-04-24T11:36:21;6.65;;;4.88;;
78197;SDS011;67472;51.554;7.812;2023-04-24T11:39:06;5.75;;;4.00;;
78197;SDS011;67472;51.554;7.812;2023-04-24T11:42:01;8.18;;;3.95;;
78197;SDS011;67472;51.554;7.812;2023-04-24T11:45:47;9.30;;;5.07;;
78197;SDS011;67472;51.554;7.812;2023-04-24T11:49:07;6.75;;;5.32;;
78197;SDS011;67472;51.554;7.812;2023-04-24T11:51:55;5.72;;;4.88;;
78197;SDS011;67472;51.554;7.812;2023-04-24T11:54:51;7.38;;;5.20;;
78197;SDS011;67472;51.554;7.812;2023-04-24T11:57:54;8.50;;;6.00;;
78197;SDS011;67472;51.554;7.812;2023-04-24T12:00:53;5.97;;;4.93;;
78197;SDS011;67472;51.554;7.812;2023-04-24T12:04:17;8.40;;;6.07;;
78197;SDS011;67472;51.554;7.812;2023-04-24T12:07:04;10.50;;;6.85;;
78197;SDS011;67472;51.554;7.812;2023-04-24T12:09:56;10.48;;;6.60;;
78197;SDS011;67472;51.554;7.812;2023-04-24T12:12:42;10.43;;;7.85;;
78197;SDS011;67472;51.554;7.812;2023-04-24T12:15:30;11.98;;;7.05;;
78197;SDS011;67472;51.554;7.812;2023-04-24T12:18:15;13.38;;;6.25;;
78197;SDS011;67472;51.554;7.812;2023-04-24T12:21:14;10.68;;;6.15;;
78197;SDS011;67472;51.554;7.812;2023-04-24T12:24:06;15.88;;;6.22;;
78197;SDS011;67472;51.554;7.812;2023-04-24T12:26:51;13.00;;;6.03;;
78197;SDS011;67472;51.554;7.812;2023-04-24T12:29:50;14.05;;;7.38;;
78197;SDS011;67472;51.554;7.812;2023-04-24T12:32:47;15.63;;;6.95;;
78197;SDS011;67472;51.554;7.812;2023-04-24T12:35:33;15.48;;;7.20;;
78197;SDS011;67472;51.554;7.812;2023-04-24T12:38:23;12.18;;;7.72;;
78197;SDS011;67472;51.554;7.812;2023-04-24T12:41:11;14.77;;;8.93;;
78197;SDS011;67472;51.554;7.812;2023-04-24T12:43:57;18.08;;;8.35;;
78197;SDS011;67472;51.554;7.812;2023-04-24T12:46:42;13.00;;;8.65;;
78197;SDS011;67472;51.554;7.812;2023-04-24T12:49:27;17.05;;;8.88;;
78197;SDS011;67472;51.554;7.812;2023-04-24T12:52:14;18.90;;;9.82;;
78197;SDS011;67472;51.554;7.812;2023-04-24T12:55:00;15.00;;;7.80;;
78197;SDS011;67472;51.554;7.812;2023-04-24T12:57:45;11.80;;;7.93;;
78197;SDS011;67472;51.554;7.812;2023-04-24T13:00:30;15.82;;;7.93;;
78197;SDS011;67472;51.554;7.812;2023-04-24T13:03:15;15.93;;;7.55;;
78197;SDS011;67472;51.554;7.812;2023-04-24T13:06:00;11.48;;;6.35;;
78197;SDS011;67472;51.554;7.812;2023-04-24T13:08:45;12.77;;;6.13;;
78197;SDS011;67472;51.554;7.812;2023-04-24T13:11:31;9.00;;;6.10;;
78197;SDS011;67472;51.554;7.812;2023-04-24T13:14:16;9.80;;;5.60;;
78197;SDS011;67472;51.554;7.812;2023-04-24T13:17:02;11.18;;;5.13;;
78197;SDS011;67472;51.554;7.812;2023-04-24T13:19:49;9.60;;;5.28;;
78197;SDS011;67472;51.554;7.812;2023-04-24T13:22:36;9.15;;;4.70;;
78197;SDS011;67472;51.554;7.812;2023-04-24T13:25:21;13.15;;;5.97;;
78197;SDS011;67472;51.554;7.812;2023-04-24T13:28:07;8.98;;;4.18;;
78197;SDS011;67472;51.554;7.812;2023-04-24T13:30:52;9.85;;;4.82;;
78197;SDS011;67472;51.554;7.812;2023-04-24T13:33:38;6.45;;;4.38;;
78197;SDS011;67472;51.554;7.812;2023-04-24T13:36:22;10.20;;;4.88;;
78197;SDS011;67472;51.554;7.812;2023-04-24T13:39:07;7.30;;;4.90;;
78197;SDS011;67472;51.554;7.812;2023-04-24T13:41:53;6.75;;;4.45;;
78197;SDS011;67472;51.554;7.812;2023-04-24T13:44:39;9.75;;;4.20;;
78197;SDS011;67472;51.554;7.812;2023-04-24T13:47:25;4.53;;;3.95;;
78197;SDS011;67472;51.554;7.812;2023-04-24T13:50:10;8.00;;;4.68;;
78197;SDS011;67472;51.554;7.812;2023-04-24T13:52:55;8.98;;;4.15;;
78197;SDS011;67472;51.554;7.812;2023-04-24T13:55:41;7.10;;;4.50;;
78197;SDS011;67472;51.554;7.812;2023-04-24T13:58:26;7.05;;;4.38;;
78197;SDS011;67472;51.554;7.812;2023-04-24T14:01:12;8.23;;;4.78;;
78197;SDS011;67472;51.554;7.812;2023-04-24T14:03:57;11.05;;;4.65;;
78197;SDS011;67472;51.554;7.812;2023-04-24T14:06:43;5.82;;;4.20;;
78197;SDS011;67472;51.554;7.812;2023-04-24T14:09:28;9.07;;;4.00;;
78197;SDS011;67472;51.554;7.812;2023-04-24T14:12:13;8.63;;;4.43;;
78197;SDS011;67472;51.554;7.812;2023-04-24T14:15:00;9.82;;;4.70;;
78197;SDS011;67472;51.554;7.812;2023-04-24T14:17:45;6.07;;;3.75;;
78197;SDS011;67472;51.554;7.812;2023-04-24T14:20:31;5.90;;;3.70;;
78197;SDS011;67472;51.554;7.812;2023-04-24T14:23:16;6.15;;;3.75;;
78197;SDS011;67472;51.554;7.812;2023-04-24T14:26:02;6.97;;;3.42;;
78197;SDS011;67472;51.554;7.812;2023-04-24T14:28:47;5.75;;;3.33;;
78197;SDS011;67472;51.554;7.812;2023-04-24T14:31:32;3.72;;;3.28;;
78197;SDS011;67472;51.554;7.812;2023-04-24T14:34:17;5.10;;;2.75;;
78197;SDS011;67472;51.554;7.812;2023-04-24T14:37:03;5.07;;;3.20;;
78197;SDS011;67472;51.554;7.812;2023-04-24T14:39:48;5.53;;;2.92;;
78197;SDS011;67472;51.554;7.812;2023-04-24T14:42:33;6.60;;;3.47;;
78197;SDS011;67472;51.554;7.812;2023-04-24T14:45:19;4.90;;;2.92;;
78197;SDS011;67472;51.554;7.812;2023-04-24T14:48:04;4.53;;;3.10;;
78197;SDS011;67472;51.554;7.812;2023-04-24T14:50:48;4.85;;;3.03;;
78197;SDS011;67472;51.554;7.812;2023-04-24T14:53:34;4.38;;;2.78;;
78197;SDS011;67472;51.554;7.812;2023-04-24T14:56:19;5.60;;;3.33;;
78197;SDS011;67472;51.554;7.812;2023-04-24T14:59:04;5.25;;;2.28;;
78197;SDS011;67472;51.554;7.812;2023-04-24T15:01:49;3.47;;;2.30;;
78197;SDS011;67472;51.554;7.812;2023-04-24T15:04:35;5.18;;;2.70;;
78197;SDS011;67472;51.554;7.812;2023-04-24T15:07:20;4.55;;;3.08;;
78197;SDS011;67472;51.554;7.812;2023-04-24T15:10:06;3.22;;;2.80;;
78197;SDS011;67472;51.554;7.812;2023-04-24T15:12:51;3.45;;;2.78;;
78197;SDS011;67472;51.554;7.812;2023-04-24T15:15:36;5.93;;;2.45;;
78197;SDS011;67472;51.554;7.812;2023-04-24T15:18:21;5.43;;;2.85;;
78197;SDS011;67472;51.554;7.812;2023-04-24T15:21:06;6.30;;;2.60;;
78197;SDS011;67472;51.554;7.812;2023-04-24T15:23:51;6.60;;;2.40;;
78197;SDS011;67472;51.554;7.812;2023-04-24T15:26:36;5.45;;;2.67;;
78197;SDS011;67472;51.554;7.812;2023-04-24T15:29:21;6.65;;;2.50;;
78197;SDS011;67472;51.554;7.812;2023-04-24T15:32:06;5.78;;;2.70;;
78197;SDS011;67472;51.554;7.812;2023-04-24T15:34:51;7.35;;;3.13;;
78197;SDS011;67472;51.554;7.812;2023-04-24T15:37:37;6.10;;;3.67;;
78197;SDS011;67472;51.554;7.812;2023-04-24T15:40:22;8.82;;;4.90;;
78197;SDS011;67472;51.554;7.812;2023-04-24T15:43:07;4.82;;;4.25;;
78197;SDS011;67472;51.554;7.812;2023-04-24T15:45:52;4.90;;;3.42;;
78197;SDS011;67472;51.554;7.812;2023-04-24T15:48:37;6.13;;;4.30;;
78197;SDS011;67472;51.554;7.812;2023-04-24T15:51:25;4.82;;;3.83;;
78197;SDS011;67472;51.554;7.812;2023-04-24T15:54:10;8.70;;;4.25;;
78197;SDS011;67472;51.554;7.812;2023-04-24T15:56:55;6.32;;;4.28;;
78197;SDS011;67472;51.554;7.812;2023-04-24T15:59:40;5.97;;;4.25;;
78197;SDS011;67472;51.554;7.812;2023-04-24T16:02:25;5.93;;;3.83;;
78197;SDS011;67472;51.554;7.812;2023-04-24T16:05:10;4.38;;;3.65;;
78197;SDS011;67472;51.554;7.812;2023-04-24T16:07:55;4.78;;;3.50;;
78197;SDS011;67472;51.554;7.812;2023-04-24T16:10:40;4.55;;;2.95;;
78197;SDS011;67472;51.554;7.812;2023-04-24T16:13:25;3.50;;;2.80;;
78197;SDS011;67472;51.554;7.812;2023-04-24T16:16:12;4.30;;;2.83;;
78197;SDS011;67472;51.554;7.812;2023-04-24T16:18:57;3.35;;;2.30;;
78197;SDS011;67472;51.554;7.812;2023-04-24T16:21:42;2.72;;;2.53;;
78197;SDS011;67472;51.554;7.812;2023-04-24T16:24:27;4.82;;;2.33;;
78197;SDS011;67472;51.554;7.812;2023-04-24T16:27:13;3.85;;;2.58;;
78197;SDS011;67472;51.554;7.812;2023-04-24T16:29:59;3.15;;;2.42;;
78197;SDS011;67472;51.554;7.812;2023-04-24T16:32:45;4.75;;;2.55;;
78197;SDS011;67472;51.554;7.812;2023-04-24T16:35:30;2.92;;;2.25;;
78197;SDS011;67472;51.554;7.812;2023-04-24T16:38:15;5.38;;;2.40;;
78197;SDS011;67472;51.554;7.812;2023-04-24T16:41:00;2.72;;;2.10;;
78197;SDS011;67472;51.554;7.812;2023-04-24T16:43:46;2.33;;;2.13;;
78197;SDS011;67472;51.554;7.812;2023-04-24T16:46:31;3.78;;;2.38;;